sensor_id;sensor_type;location;lat;lon;timestamp;temperature;humidity
6988;DHT22;3534;49.960;8.018;2023-04-25T00:02:10;10.80;99.90
6988;DHT22;3534;49.960;8.018;2023-04-25T00:04:37;10.80;99.90
6988;DHT22;3534;49.960;8.018;2023-04-25T00:07:05;10.80;99.90
6988;DHT22;3534;49.960;8.018;2023-04-25T00:09:32;10.90;99.90
6988;DHT22;3534;49.960;8.018;2023-04-25T00:11:59;10.90;99.90
6988;DHT22;3534;49.960;8.018;2023-04-25T00:14:27;10.90;99.90
6988;DHT22;3534;49.960;8.018;2023-04-25T00:16:54;10.90;99.90
6988;DHT22;3534;49.960;8.018;2023-04-25T00:19:20;10.90;99.90
6988;DHT22;3534;49.960;8.018;2023-04-25T00:21:47;10.90;99.90
6988;DHT22;3534;49.960;8.018;2023-04-25T00:24:15;10.90;99.90
6988;DHT22;3534;49.960;8.018;2023-04-25T00:26:42;10.90;99.90
6988;DHT22;3534;49.960;8.018;2023-04-25T00:29:09;11.00;99.90
6988;DHT22;3534;49.960;8.018;2023-04-25T00:31:35;11.00;99.90
6988;DHT22;3534;49.960;8.018;2023-04-25T00:34:02;11.10;99.90
6988;DHT22;3534;49.960;8.018;2023-04-25T00:36:29;11.10;99.90
6988;DHT22;3534;49.960;8.018;2023-04-25T00:38:56;11.20;99.90
6988;DHT22;3534;49.960;8.018;2023-04-25T00:41:25;11.20;99.90
6988;DHT22;3534;49.960;8.018;2023-04-25T00:43:52;11.30;99.90
6988;DHT22;3534;49.960;8.018;2023-04-25T00:46:20;11.30;99.90
6988;DHT22;3534;49.960;8.018;2023-04-25T00:48:46;11.30;99.90
6988;DHT22;3534;49.960;8.018;2023-04-25T00:51:16;11.40;99.90
6988;DHT22;3534;49.960;8.018;2023-04-25T00:53:44;11.40;99.90
6988;DHT22;3534;49.960;8.018;2023-04-25T00:56:11;11.40;99.90
6988;DHT22;3534;49.960;8.018;2023-04-25T00:58:40;11.50;99.90
6988;DHT22;3534;49.960;8.018;2023-04-25T01:01:08;11.50;99.90
6988;DHT22;3534;49.960;8.018;2023-04-25T01:03:37;11.50;99.90
6988;DHT22;3534;49.960;8.018;2023-04-25T01:06:06;11.50;99.90
6988;DHT22;3534;49.960;8.018;2023-04-25T01:08:34;11.50;99.90
6988;DHT22;3534;49.960;8.018;2023-04-25T01:11:00;11.60;99.90
6988;DHT22;3534;49.960;8.018;2023-04-25T01:13:27;11.60;99.90
6988;DHT22;3534;49.960;8.018;2023-04-25T01:15:55;11.60;99.90
6988;DHT22;3534;49.960;8.018;2023-04-25T01:18:22;11.50;99.90
6988;DHT22;3534;49.960;8.018;2023-04-25T01:20:51;11.40;99.90
6988;DHT22;3534;49.960;8.018;2023-04-25T01:23:19;11.40;99.90
6988;DHT22;3534;49.960;8.018;2023-04-25T01:25:47;11.40;99.90
6988;DHT22;3534;49.960;8.018;2023-04-25T01:28:14;11.40;99.90
6988;DHT22;3534;49.960;8.018;2023-04-25T01:30:41;11.40;99.90
6988;DHT22;3534;49.960;8.018;2023-04-25T01:33:08;11.50;99.90
6988;DHT22;3534;49.960;8.018;2023-04-25T01:35:35;11.50;99.90
6988;DHT22;3534;49.960;8.018;2023-04-25T01:38:01;11.50;99.90
6988;DHT22;3534;49.960;8.018;2023-04-25T01:40:30;11.50;99.90
6988;DHT22;3534;49.960;8.018;2023-04-25T01:42:57;11.50;99.90
6988;DHT22;3534;49.960;8.018;2023-04-25T01:45:24;11.50;99.90
6988;DHT22;3534;49.960;8.018;2023-04-25T01:47:51;11.50;99.90
6988;DHT22;3534;49.960;8.018;2023-04-25T01:50:19;11.50;99.90
6988;DHT22;3534;49.960;8.018;2023-04-25T01:52:46;11.50;99.90
6988;DHT22;3534;49.960;8.018;2023-04-25T01:55:12;11.40;99.90
6988;DHT22;3534;49.960;8.018;2023-04-25T01:57:40;11.50;99.90
6988;DHT22;3534;49.960;8.018;2023-04-25T02:00:08;11.50;99.90
6988;DHT22;3534;49.960;8.018;2023-04-25T02:02:35;11.50;99.90
6988;DHT22;3534;49.960;8.018;2023-04-25T02:05:02;11.50;99.90
6988;DHT22;3534;49.960;8.018;2023-04-25T02:07:29;11.50;99.90
6988;DHT22;3534;49.960;8.018;2023-04-25T02:09:56;11.50;99.90
6988;DHT22;3534;49.960;8.018;2023-04-25T02:12:22;11.50;99.90
6988;DHT22;3534;49.960;8.018;2023-04-25T02:14:51;11.60;99.90
6988;DHT22;3534;49.960;8.018;2023-04-25T02:17:17;11.60;99.90
6988;DHT22;3534;49.960;8.018;2023-04-25T02:19:44;11.60;99.90
6988;DHT22;3534;49.960;8.018;2023-04-25T02:22:11;11.60;99.90
6988;DHT22;3534;49.960;8.018;2023-04-25T02:24:39;11.60;99.90
6988;DHT22;3534;49.960;8.018;2023-04-25T02:27:05;11.60;99.90
6988;DHT22;3534;49.960;8.018;2023-04-25T02:29:33;11.60;99.90
6988;DHT22;3534;49.960;8.018;2023-04-25T02:32:01;11.60;99.90
6988;DHT22;3534;49.960;8.018;2023-04-25T02:34:27;11.60;99.90
6988;DHT22;3534;49.960;8.018;2023-04-25T02:36:54;11.50;99.90
6988;DHT22;3534;49.960;8.018;2023-04-25T02:39:21;11.50;99.90
6988;DHT22;3534;49.960;8.018;2023-04-25T02:41:50;11.50;99.90
6988;DHT22;3534;49.960;8.018;2023-04-25T02:44:17;11.50;99.90
6988;DHT22;3534;49.960;8.018;2023-04-25T02:46:43;11.50;99.90
6988;DHT22;3534;49.960;8.018;2023-04-25T02:49:11;11.50;99.90
6988;DHT22;3534;49.960;8.018;2023-04-25T02:51:38;11.40;99.90
6988;DHT22;3534;49.960;8.018;2023-04-25T02:54:04;11.40;99.90
6988;DHT22;3534;49.960;8.018;2023-04-25T02:56:32;11.40;99.90
6988;DHT22;3534;49.960;8.018;2023-04-25T02:58:58;11.40;99.90
6988;DHT22;3534;49.960;8.018;2023-04-25T03:01:25;11.40;99.90
6988;DHT22;3534;49.960;8.018;2023-04-25T03:03:52;11.40;99.90
6988;DHT22;3534;49.960;8.018;2023-04-25T03:06:20;11.40;99.90
6988;DHT22;3534;49.960;8.018;2023-04-25T03:08:46;11.40;99.90
6988;DHT22;3534;49.960;8.018;2023-04-25T03:11:13;11.40;99.90
6988;DHT22;3534;49.960;8.018;2023-04-25T03:13:39;11.40;99.90
6988;DHT22;3534;49.960;8.018;2023-04-25T03:16:06;11.40;99.90
6988;DHT22;3534;49.960;8.018;2023-04-25T03:18:33;11.40;99.90
6988;DHT22;3534;49.960;8.018;2023-04-25T03:20:59;11.40;99.90
6988;DHT22;3534;49.960;8.018;2023-04-25T03:23:28;11.40;99.90
6988;DHT22;3534;49.960;8.018;2023-04-25T03:25:54;11.40;99.90
6988;DHT22;3534;49.960;8.018;2023-04-25T03:28:22;11.40;99.90
6988;DHT22;3534;49.960;8.018;2023-04-25T03:30:48;11.30;99.90
6988;DHT22;3534;49.960;8.018;2023-04-25T03:33:15;11.20;99.90
6988;DHT22;3534;49.960;8.018;2023-04-25T03:35:41;11.20;99.90
6988;DHT22;3534;49.960;8.018;2023-04-25T03:38:08;11.20;99.90
6988;DHT22;3534;49.960;8.018;2023-04-25T03:40:36;11.10;99.90
6988;DHT22;3534;49.960;8.018;2023-04-25T03:43:03;11.10;99.90
6988;DHT22;3534;49.960;8.018;2023-04-25T03:45:30;11.10;99.90
6988;DHT22;3534;49.960;8.018;2023-04-25T03:47:56;11.00;99.90
6988;DHT22;3534;49.960;8.018;2023-04-25T03:50:23;11.00;99.90
6988;DHT22;3534;49.960;8.018;2023-04-25T03:52:50;10.90;99.90
6988;DHT22;3534;49.960;8.018;2023-04-25T03:55:16;10.80;99.90
6988;DHT22;3534;49.960;8.018;2023-04-25T03:57:44;10.70;99.90
6988;DHT22;3534;49.960;8.018;2023-04-25T04:00:12;10.70;99.90
6988;DHT22;3534;49.960;8.018;2023-04-25T04:02:39;10.70;99.90
6988;DHT22;3534;49.960;8.018;2023-04-25T04:05:06;10.70;99.90
6988;DHT22;3534;49.960;8.018;2023-04-25T04:07:33;10.70;99.90
6988;DHT22;3534;49.960;8.018;2023-04-25T04:10:05;10.80;99.90
6988;DHT22;3534;49.960;8.018;2023-04-25T04:12:33;10.80;99.90
6988;DHT22;3534;49.960;8.018;2023-04-25T04:15:01;10.90;99.90
6988;DHT22;3534;49.960;8.018;2023-04-25T04:17:28;10.90;99.90
6988;DHT22;3534;49.960;8.018;2023-04-25T04:19:55;11.00;99.90
6988;DHT22;3534;49.960;8.018;2023-04-25T04:22:22;10.90;99.90
6988;DHT22;3534;49.960;8.018;2023-04-25T04:24:49;10.90;99.90
6988;DHT22;3534;49.960;8.018;2023-04-25T04:27:16;10.80;99.90
6988;DHT22;3534;49.960;8.018;2023-04-25T04:29:44;10.60;99.90
6988;DHT22;3534;49.960;8.018;2023-04-25T04:32:13;10.60;99.90
6988;DHT22;3534;49.960;8.018;2023-04-25T04:34:39;10.60;99.90
6988;DHT22;3534;49.960;8.018;2023-04-25T04:37:07;10.60;99.90
6988;DHT22;3534;49.960;8.018;2023-04-25T04:39:33;10.50;99.90
6988;DHT22;3534;49.960;8.018;2023-04-25T04:42:00;10.60;99.90
6988;DHT22;3534;49.960;8.018;2023-04-25T04:44:29;10.40;99.90
6988;DHT22;3534;49.960;8.018;2023-04-25T04:46:58;10.20;99.90
6988;DHT22;3534;49.960;8.018;2023-04-25T04:49:26;10.20;99.90
6988;DHT22;3534;49.960;8.018;2023-04-25T04:51:52;10.10;99.90
6988;DHT22;3534;49.960;8.018;2023-04-25T04:54:20;10.00;99.90
6988;DHT22;3534;49.960;8.018;2023-04-25T04:56:46;9.90;99.90
6988;DHT22;3534;49.960;8.018;2023-04-25T04:59:13;10.00;99.90
6988;DHT22;3534;49.960;8.018;2023-04-25T05:01:40;10.00;99.90
6988;DHT22;3534;49.960;8.018;2023-04-25T05:04:06;10.10;99.90
6988;DHT22;3534;49.960;8.018;2023-04-25T05:06:34;10.10;99.90
6988;DHT22;3534;49.960;8.018;2023-04-25T05:09:01;10.20;99.90
6988;DHT22;3534;49.960;8.018;2023-04-25T05:11:28;10.30;99.90
6988;DHT22;3534;49.960;8.018;2023-04-25T05:13:55;10.20;99.90
6988;DHT22;3534;49.960;8.018;2023-04-25T05:16:21;10.30;99.90
6988;DHT22;3534;49.960;8.018;2023-04-25T05:18:48;10.30;99.90
6988;DHT22;3534;49.960;8.018;2023-04-25T05:21:15;10.30;99.90
6988;DHT22;3534;49.960;8.018;2023-04-25T05:23:43;10.20;99.90
6988;DHT22;3534;49.960;8.018;2023-04-25T05:26:10;10.20;99.90
6988;DHT22;3534;49.960;8.018;2023-04-25T05:28:39;10.10;99.90
6988;DHT22;3534;49.960;8.018;2023-04-25T05:31:06;10.10;99.90
6988;DHT22;3534;49.960;8.018;2023-04-25T05:33:33;10.10;99.90
6988;DHT22;3534;49.960;8.018;2023-04-25T05:35:59;10.00;99.90
6988;DHT22;3534;49.960;8.018;2023-04-25T05:38:26;10.10;99.90
6988;DHT22;3534;49.960;8.018;2023-04-25T05:40:54;10.20;99.90
6988;DHT22;3534;49.960;8.018;2023-04-25T05:43:21;10.30;99.90
6988;DHT22;3534;49.960;8.018;2023-04-25T05:45:48;10.30;99.90
6988;DHT22;3534;49.960;8.018;2023-04-25T05:48:14;10.20;99.90
6988;DHT22;3534;49.960;8.018;2023-04-25T05:50:41;10.10;99.90
6988;DHT22;3534;49.960;8.018;2023-04-25T05:53:08;10.20;99.90
6988;DHT22;3534;49.960;8.018;2023-04-25T05:55:34;10.10;99.90
6988;DHT22;3534;49.960;8.018;2023-04-25T05:58:02;10.10;99.90
6988;DHT22;3534;49.960;8.018;2023-04-25T06:00:29;10.10;99.90
6988;DHT22;3534;49.960;8.018;2023-04-25T06:02:56;10.10;99.90
6988;DHT22;3534;49.960;8.018;2023-04-25T06:05:22;10.20;99.90
6988;DHT22;3534;49.960;8.018;2023-04-25T06:07:49;10.20;99.90
6988;DHT22;3534;49.960;8.018;2023-04-25T06:10:16;10.20;99.90
6988;DHT22;3534;49.960;8.018;2023-04-25T06:12:42;10.30;99.90
6988;DHT22;3534;49.960;8.018;2023-04-25T06:15:10;10.30;99.90
6988;DHT22;3534;49.960;8.018;2023-04-25T06:17:37;10.30;99.90
6988;DHT22;3534;49.960;8.018;2023-04-25T06:20:05;10.10;99.90
6988;DHT22;3534;49.960;8.018;2023-04-25T06:22:32;10.00;99.90
6988;DHT22;3534;49.960;8.018;2023-04-25T06:24:58;10.00;99.90
6988;DHT22;3534;49.960;8.018;2023-04-25T06:27:25;10.10;99.90
6988;DHT22;3534;49.960;8.018;2023-04-25T06:29:52;10.10;99.90
6988;DHT22;3534;49.960;8.018;2023-04-25T06:32:20;10.10;99.90
6988;DHT22;3534;49.960;8.018;2023-04-25T06:34:46;10.30;99.90
6988;DHT22;3534;49.960;8.018;2023-04-25T06:37:13;10.40;99.90
6988;DHT22;3534;49.960;8.018;2023-04-25T06:39:40;10.60;99.90
6988;DHT22;3534;49.960;8.018;2023-04-25T06:42:06;10.70;99.90
6988;DHT22;3534;49.960;8.018;2023-04-25T06:44:33;10.70;99.90
6988;DHT22;3534;49.960;8.018;2023-04-25T06:47:01;10.60;99.90
6988;DHT22;3534;49.960;8.018;2023-04-25T06:49:29;10.50;99.90
6988;DHT22;3534;49.960;8.018;2023-04-25T06:51:55;10.50;99.90
6988;DHT22;3534;49.960;8.018;2023-04-25T06:54:22;10.60;99.90
6988;DHT22;3534;49.960;8.018;2023-04-25T06:56:50;10.60;99.90
6988;DHT22;3534;49.960;8.018;2023-04-25T06:59:17;10.60;99.90
6988;DHT22;3534;49.960;8.018;2023-04-25T07:01:43;10.70;99.90
6988;DHT22;3534;49.960;8.018;2023-04-25T07:04:10;10.80;99.90
6988;DHT22;3534;49.960;8.018;2023-04-25T07:06:38;10.90;99.90
6988;DHT22;3534;49.960;8.018;2023-04-25T07:09:08;10.90;99.90
6988;DHT22;3534;49.960;8.018;2023-04-25T07:11:35;10.80;99.90
6988;DHT22;3534;49.960;8.018;2023-04-25T07:14:02;10.90;99.90
6988;DHT22;3534;49.960;8.018;2023-04-25T07:16:29;10.90;99.90
6988;DHT22;3534;49.960;8.018;2023-04-25T07:18:55;10.80;99.90
6988;DHT22;3534;49.960;8.018;2023-04-25T07:21:22;10.90;99.90
6988;DHT22;3534;49.960;8.018;2023-04-25T07:23:50;11.00;99.90
6988;DHT22;3534;49.960;8.018;2023-04-25T07:26:17;11.00;99.90
6988;DHT22;3534;49.960;8.018;2023-04-25T07:28:43;11.00;99.90
6988;DHT22;3534;49.960;8.018;2023-04-25T07:31:11;10.90;99.90
6988;DHT22;3534;49.960;8.018;2023-04-25T07:33:37;10.90;99.90
6988;DHT22;3534;49.960;8.018;2023-04-25T07:36:05;11.00;99.90
6988;DHT22;3534;49.960;8.018;2023-04-25T07:38:31;11.00;99.90
6988;DHT22;3534;49.960;8.018;2023-04-25T07:41:00;11.20;99.90
6988;DHT22;3534;49.960;8.018;2023-04-25T07:43:26;11.30;99.90
6988;DHT22;3534;49.960;8.018;2023-04-25T07:45:53;11.40;99.90
6988;DHT22;3534;49.960;8.018;2023-04-25T07:48:20;11.50;99.90
6988;DHT22;3534;49.960;8.018;2023-04-25T07:50:46;11.70;99.90
6988;DHT22;3534;49.960;8.018;2023-04-25T07:53:13;11.60;99.90
6988;DHT22;3534;49.960;8.018;2023-04-25T07:55:40;11.50;99.90
6988;DHT22;3534;49.960;8.018;2023-04-25T07:58:08;11.50;99.90
6988;DHT22;3534;49.960;8.018;2023-04-25T08:00:35;11.60;99.90
6988;DHT22;3534;49.960;8.018;2023-04-25T08:03:01;11.60;99.90
6988;DHT22;3534;49.960;8.018;2023-04-25T08:05:29;11.70;99.90
6988;DHT22;3534;49.960;8.018;2023-04-25T08:07:55;11.60;99.90
6988;DHT22;3534;49.960;8.018;2023-04-25T08:10:23;11.50;99.90
6988;DHT22;3534;49.960;8.018;2023-04-25T08:12:49;11.50;99.90
6988;DHT22;3534;49.960;8.018;2023-04-25T08:15:18;11.60;99.90
6988;DHT22;3534;49.960;8.018;2023-04-25T08:17:44;11.60;99.90
6988;DHT22;3534;49.960;8.018;2023-04-25T08:20:12;11.40;99.90
6988;DHT22;3534;49.960;8.018;2023-04-25T08:22:38;11.40;99.90
6988;DHT22;3534;49.960;8.018;2023-04-25T08:25:06;11.50;99.90
6988;DHT22;3534;49.960;8.018;2023-04-25T08:27:32;11.60;99.90
6988;DHT22;3534;49.960;8.018;2023-04-25T08:29:59;11.70;99.90
6988;DHT22;3534;49.960;8.018;2023-04-25T08:32:27;11.70;99.90
6988;DHT22;3534;49.960;8.018;2023-04-25T08:34:54;11.60;99.90
6988;DHT22;3534;49.960;8.018;2023-04-25T08:37:21;11.60;99.90
6988;DHT22;3534;49.960;8.018;2023-04-25T08:39:47;11.60;99.90
6988;DHT22;3534;49.960;8.018;2023-04-25T08:42:17;11.60;99.90
6988;DHT22;3534;49.960;8.018;2023-04-25T08:44:45;11.50;99.90
6988;DHT22;3534;49.960;8.018;2023-04-25T08:47:12;11.60;99.90
6988;DHT22;3534;49.960;8.018;2023-04-25T08:49:45;11.70;99.90
6988;DHT22;3534;49.960;8.018;2023-04-25T08:52:13;11.60;99.90
6988;DHT22;3534;49.960;8.018;2023-04-25T08:54:42;11.50;99.90
6988;DHT22;3534;49.960;8.018;2023-04-25T08:57:10;11.50;99.90
6988;DHT22;3534;49.960;8.018;2023-04-25T08:59:37;11.60;99.90
6988;DHT22;3534;49.960;8.018;2023-04-25T09:02:06;11.70;99.90
6988;DHT22;3534;49.960;8.018;2023-04-25T09:04:34;11.70;99.90
6988;DHT22;3534;49.960;8.018;2023-04-25T09:07:03;11.60;99.90
6988;DHT22;3534;49.960;8.018;2023-04-25T09:09:30;11.50;99.90
6988;DHT22;3534;49.960;8.018;2023-04-25T09:11:57;11.50;99.90
6988;DHT22;3534;49.960;8.018;2023-04-25T09:14:25;11.50;99.90
6988;DHT22;3534;49.960;8.018;2023-04-25T09:17:00;11.60;99.90
6988;DHT22;3534;49.960;8.018;2023-04-25T09:19:29;11.50;99.90
6988;DHT22;3534;49.960;8.018;2023-04-25T09:21:57;11.70;99.90
6988;DHT22;3534;49.960;8.018;2023-04-25T09:24:33;11.60;99.90
6988;DHT22;3534;49.960;8.018;2023-04-25T09:27:03;11.90;99.90
6988;DHT22;3534;49.960;8.018;2023-04-25T09:29:31;12.00;99.90
6988;DHT22;3534;49.960;8.018;2023-04-25T09:32:11;12.20;99.90
6988;DHT22;3534;49.960;8.018;2023-04-25T09:34:39;12.30;99.90
6988;DHT22;3534;49.960;8.018;2023-04-25T09:37:07;12.50;99.90
6988;DHT22;3534;49.960;8.018;2023-04-25T09:39:36;12.60;99.90
6988;DHT22;3534;49.960;8.018;2023-04-25T09:42:04;12.60;99.90
6988;DHT22;3534;49.960;8.018;2023-04-25T09:44:30;12.50;99.90
6988;DHT22;3534;49.960;8.018;2023-04-25T09:46:57;12.40;99.90
6988;DHT22;3534;49.960;8.018;2023-04-25T09:49:26;12.40;99.90
6988;DHT22;3534;49.960;8.018;2023-04-25T09:51:56;12.40;99.90
6988;DHT22;3534;49.960;8.018;2023-04-25T09:54:23;12.40;99.90
6988;DHT22;3534;49.960;8.018;2023-04-25T09:56:53;12.40;99.90
6988;DHT22;3534;49.960;8.018;2023-04-25T09:59:20;12.30;99.90
6988;DHT22;3534;49.960;8.018;2023-04-25T10:01:48;12.50;99.90
6988;DHT22;3534;49.960;8.018;2023-04-25T10:04:20;12.50;99.90
6988;DHT22;3534;49.960;8.018;2023-04-25T10:06:49;12.50;99.90
6988;DHT22;3534;49.960;8.018;2023-04-25T10:09:19;12.50;99.90
6988;DHT22;3534;49.960;8.018;2023-04-25T10:11:47;12.70;99.90
6988;DHT22;3534;49.960;8.018;2023-04-25T10:14:16;12.70;99.90
6988;DHT22;3534;49.960;8.018;2023-04-25T10:16:43;12.80;99.90
6988;DHT22;3534;49.960;8.018;2023-04-25T10:19:10;12.70;99.90
6988;DHT22;3534;49.960;8.018;2023-04-25T10:21:44;12.70;99.90
6988;DHT22;3534;49.960;8.018;2023-04-25T10:24:13;12.90;99.90
6988;DHT22;3534;49.960;8.018;2023-04-25T10:26:40;13.10;99.90
6988;DHT22;3534;49.960;8.018;2023-04-25T10:29:07;13.20;99.90
6988;DHT22;3534;49.960;8.018;2023-04-25T10:31:45;13.20;99.90
6988;DHT22;3534;49.960;8.018;2023-04-25T10:34:12;13.20;99.90
6988;DHT22;3534;49.960;8.018;2023-04-25T10:36:39;13.10;99.90
6988;DHT22;3534;49.960;8.018;2023-04-25T10:39:07;13.10;99.90
6988;DHT22;3534;49.960;8.018;2023-04-25T10:41:46;12.90;99.90
6988;DHT22;3534;49.960;8.018;2023-04-25T10:44:13;12.80;99.90
6988;DHT22;3534;49.960;8.018;2023-04-25T10:46:44;12.90;99.90
6988;DHT22;3534;49.960;8.018;2023-04-25T10:49:11;13.00;99.90
6988;DHT22;3534;49.960;8.018;2023-04-25T10:52:11;13.00;99.90
6988;DHT22;3534;49.960;8.018;2023-04-25T10:54:40;12.90;99.90
6988;DHT22;3534;49.960;8.018;2023-04-25T10:57:07;12.90;99.90
6988;DHT22;3534;49.960;8.018;2023-04-25T10:59:34;13.00;99.90
6988;DHT22;3534;49.960;8.018;2023-04-25T11:02:11;12.90;99.90
6988;DHT22;3534;49.960;8.018;2023-04-25T11:04:38;13.00;99.90
6988;DHT22;3534;49.960;8.018;2023-04-25T11:07:13;13.10;99.90
6988;DHT22;3534;49.960;8.018;2023-04-25T11:09:41;13.30;99.90
6988;DHT22;3534;49.960;8.018;2023-04-25T11:12:09;13.30;99.90
6988;DHT22;3534;49.960;8.018;2023-04-25T11:14:37;13.30;99.90
6988;DHT22;3534;49.960;8.018;2023-04-25T11:17:05;13.20;99.90
6988;DHT22;3534;49.960;8.018;2023-04-25T11:19:32;13.00;99.90
6988;DHT22;3534;49.960;8.018;2023-04-25T11:21:59;13.00;99.90
6988;DHT22;3534;49.960;8.018;2023-04-25T11:24:27;13.10;99.90
6988;DHT22;3534;49.960;8.018;2023-04-25T11:26:54;13.10;99.90
6988;DHT22;3534;49.960;8.018;2023-04-25T11:29:22;13.10;99.90
6988;DHT22;3534;49.960;8.018;2023-04-25T11:31:48;13.20;99.90
6988;DHT22;3534;49.960;8.018;2023-04-25T11:34:18;13.30;99.90
6988;DHT22;3534;49.960;8.018;2023-04-25T11:36:45;13.30;99.90
6988;DHT22;3534;49.960;8.018;2023-04-25T11:39:12;13.10;99.90
6988;DHT22;3534;49.960;8.018;2023-04-25T11:41:41;13.10;99.90
6988;DHT22;3534;49.960;8.018;2023-04-25T11:44:08;13.10;99.90
6988;DHT22;3534;49.960;8.018;2023-04-25T11:46:34;13.00;99.90
6988;DHT22;3534;49.960;8.018;2023-04-25T11:49:01;12.90;99.90
6988;DHT22;3534;49.960;8.018;2023-04-25T11:51:29;12.80;99.90
6988;DHT22;3534;49.960;8.018;2023-04-25T11:53:57;12.90;99.90
6988;DHT22;3534;49.960;8.018;2023-04-25T11:56:23;13.00;99.90
6988;DHT22;3534;49.960;8.018;2023-04-25T11:58:57;13.10;99.90
6988;DHT22;3534;49.960;8.018;2023-04-25T12:01:28;13.20;99.90
6988;DHT22;3534;49.960;8.018;2023-04-25T12:03:56;13.40;99.90
6988;DHT22;3534;49.960;8.018;2023-04-25T12:06:26;13.40;99.90
6988;DHT22;3534;49.960;8.018;2023-04-25T12:09:02;13.50;99.90
6988;DHT22;3534;49.960;8.018;2023-04-25T12:11:30;13.60;99.90
6988;DHT22;3534;49.960;8.018;2023-04-25T12:14:02;13.50;99.90
6988;DHT22;3534;49.960;8.018;2023-04-25T12:16:29;13.40;99.90
6988;DHT22;3534;49.960;8.018;2023-04-25T12:18:56;13.50;99.90
6988;DHT22;3534;49.960;8.018;2023-04-25T12:21:28;13.50;99.90
6988;DHT22;3534;49.960;8.018;2023-04-25T12:23:55;13.50;99.90
6988;DHT22;3534;49.960;8.018;2023-04-25T12:26:23;13.60;99.90
6988;DHT22;3534;49.960;8.018;2023-04-25T12:28:50;13.60;99.90
6988;DHT22;3534;49.960;8.018;2023-04-25T12:31:17;13.60;99.90
6988;DHT22;3534;49.960;8.018;2023-04-25T12:33:44;13.80;99.90
6988;DHT22;3534;49.960;8.018;2023-04-25T12:36:13;13.90;99.90
6988;DHT22;3534;49.960;8.018;2023-04-25T12:38:41;13.90;99.90
6988;DHT22;3534;49.960;8.018;2023-04-25T12:41:08;13.80;99.90
6988;DHT22;3534;49.960;8.018;2023-04-25T12:43:37;13.70;99.90
6988;DHT22;3534;49.960;8.018;2023-04-25T12:46:04;13.50;99.90
6988;DHT22;3534;49.960;8.018;2023-04-25T12:48:31;13.30;99.90
6988;DHT22;3534;49.960;8.018;2023-04-25T12:50:57;13.20;99.90
6988;DHT22;3534;49.960;8.018;2023-04-25T12:53:24;13.50;99.90
6988;DHT22;3534;49.960;8.018;2023-04-25T12:55:51;14.00;99.90
6988;DHT22;3534;49.960;8.018;2023-04-25T12:58:18;14.60;99.90
6988;DHT22;3534;49.960;8.018;2023-04-25T13:00:46;15.20;99.90
6988;DHT22;3534;49.960;8.018;2023-04-25T13:03:13;15.70;99.90
6988;DHT22;3534;49.960;8.018;2023-04-25T13:05:40;16.00;99.90
6988;DHT22;3534;49.960;8.018;2023-04-25T13:08:07;16.00;99.90
6988;DHT22;3534;49.960;8.018;2023-04-25T13:10:34;15.90;99.90
6988;DHT22;3534;49.960;8.018;2023-04-25T13:13:01;15.80;99.90
6988;DHT22;3534;49.960;8.018;2023-04-25T13:15:28;15.90;99.90
6988;DHT22;3534;49.960;8.018;2023-04-25T13:17:56;16.10;99.90
6988;DHT22;3534;49.960;8.018;2023-04-25T13:20:23;16.00;99.90
6988;DHT22;3534;49.960;8.018;2023-04-25T13:22:50;16.10;99.90
6988;DHT22;3534;49.960;8.018;2023-04-25T13:25:16;16.40;99.90
6988;DHT22;3534;49.960;8.018;2023-04-25T13:27:44;16.70;99.90
6988;DHT22;3534;49.960;8.018;2023-04-25T13:30:12;16.60;99.90
6988;DHT22;3534;49.960;8.018;2023-04-25T13:32:39;16.30;99.90
6988;DHT22;3534;49.960;8.018;2023-04-25T13:35:09;15.80;99.90
6988;DHT22;3534;49.960;8.018;2023-04-25T13:37:37;15.60;99.90
6988;DHT22;3534;49.960;8.018;2023-04-25T13:40:05;15.30;99.90
6988;DHT22;3534;49.960;8.018;2023-04-25T13:42:35;15.10;99.90
6988;DHT22;3534;49.960;8.018;2023-04-25T13:45:02;14.90;99.90
6988;DHT22;3534;49.960;8.018;2023-04-25T13:47:29;14.70;99.90
6988;DHT22;3534;49.960;8.018;2023-04-25T13:49:56;14.40;99.90
6988;DHT22;3534;49.960;8.018;2023-04-25T13:52:24;14.30;99.90
6988;DHT22;3534;49.960;8.018;2023-04-25T13:54:51;14.20;99.90
6988;DHT22;3534;49.960;8.018;2023-04-25T13:57:18;14.10;99.90
6988;DHT22;3534;49.960;8.018;2023-04-25T13:59:45;14.00;99.90
6988;DHT22;3534;49.960;8.018;2023-04-25T14:02:12;14.00;99.90
6988;DHT22;3534;49.960;8.018;2023-04-25T14:04:39;14.10;99.90
6988;DHT22;3534;49.960;8.018;2023-04-25T14:07:06;14.20;99.90
6988;DHT22;3534;49.960;8.018;2023-04-25T14:09:35;14.00;99.90
6988;DHT22;3534;49.960;8.018;2023-04-25T14:12:01;13.80;99.90
6988;DHT22;3534;49.960;8.018;2023-04-25T14:14:28;13.80;99.90
6988;DHT22;3534;49.960;8.018;2023-04-25T14:16:55;13.80;99.90
6988;DHT22;3534;49.960;8.018;2023-04-25T14:19:22;13.80;99.90
6988;DHT22;3534;49.960;8.018;2023-04-25T14:21:49;13.80;99.90
6988;DHT22;3534;49.960;8.018;2023-04-25T14:24:16;13.80;99.90
6988;DHT22;3534;49.960;8.018;2023-04-25T14:26:44;13.70;99.90
6988;DHT22;3534;49.960;8.018;2023-04-25T14:29:11;13.80;99.90
6988;DHT22;3534;49.960;8.018;2023-04-25T14:31:38;14.30;99.90
6988;DHT22;3534;49.960;8.018;2023-04-25T14:34:05;14.50;99.90
6988;DHT22;3534;49.960;8.018;2023-04-25T14:36:33;14.50;99.90
6988;DHT22;3534;49.960;8.018;2023-04-25T14:39:00;14.50;99.90
6988;DHT22;3534;49.960;8.018;2023-04-25T14:41:27;14.40;99.90
6988;DHT22;3534;49.960;8.018;2023-04-25T14:43:55;14.20;99.90
6988;DHT22;3534;49.960;8.018;2023-04-25T14:46:22;14.20;99.90
6988;DHT22;3534;49.960;8.018;2023-04-25T14:48:49;14.10;99.90
6988;DHT22;3534;49.960;8.018;2023-04-25T14:51:16;14.10;99.90
6988;DHT22;3534;49.960;8.018;2023-04-25T14:53:42;14.10;99.90
6988;DHT22;3534;49.960;8.018;2023-04-25T14:56:09;14.10;99.90
6988;DHT22;3534;49.960;8.018;2023-04-25T14:58:36;14.20;99.90
6988;DHT22;3534;49.960;8.018;2023-04-25T15:01:05;14.30;99.90
6988;DHT22;3534;49.960;8.018;2023-04-25T15:03:33;14.30;99.90
6988;DHT22;3534;49.960;8.018;2023-04-25T15:06:00;14.40;99.90
6988;DHT22;3534;49.960;8.018;2023-04-25T15:08:26;14.50;99.90
6988;DHT22;3534;49.960;8.018;2023-04-25T15:10:53;14.50;99.90
6988;DHT22;3534;49.960;8.018;2023-04-25T15:13:20;14.60;99.90
6988;DHT22;3534;49.960;8.018;2023-04-25T15:15:47;14.60;99.90
6988;DHT22;3534;49.960;8.018;2023-04-25T15:18:17;14.60;99.90
6988;DHT22;3534;49.960;8.018;2023-04-25T15:20:47;14.60;99.90
6988;DHT22;3534;49.960;8.018;2023-04-25T15:23:13;14.60;99.90
6988;DHT22;3534;49.960;8.018;2023-04-25T15:25:40;14.70;99.90
6988;DHT22;3534;49.960;8.018;2023-04-25T15:28:07;14.80;99.90
6988;DHT22;3534;49.960;8.018;2023-04-25T15:30:34;14.90;99.90
6988;DHT22;3534;49.960;8.018;2023-04-25T15:33:00;15.00;99.90
6988;DHT22;3534;49.960;8.018;2023-04-25T15:35:29;15.30;99.90
6988;DHT22;3534;49.960;8.018;2023-04-25T15:37:56;15.80;99.90
6988;DHT22;3534;49.960;8.018;2023-04-25T15:40:22;16.30;99.90
6988;DHT22;3534;49.960;8.018;2023-04-25T15:42:50;16.60;99.90
6988;DHT22;3534;49.960;8.018;2023-04-25T15:45:18;16.80;99.90
6988;DHT22;3534;49.960;8.018;2023-04-25T15:47:46;16.70;99.90
6988;DHT22;3534;49.960;8.018;2023-04-25T15:50:13;16.60;99.90
6988;DHT22;3534;49.960;8.018;2023-04-25T15:52:42;16.30;99.90
6988;DHT22;3534;49.960;8.018;2023-04-25T15:55:09;15.70;99.90
6988;DHT22;3534;49.960;8.018;2023-04-25T15:57:37;15.00;99.30
6988;DHT22;3534;49.960;8.018;2023-04-25T16:00:07;14.70;99.90
6988;DHT22;3534;49.960;8.018;2023-04-25T16:02:35;14.70;97.60
6988;DHT22;3534;49.960;8.018;2023-04-25T16:05:02;14.80;99.90